createdAt,value
2022-11-19T00:06:27.806Z,9.90
2022-11-19T00:14:49.970Z,10.30
2022-11-19T00:23:14.115Z,13.50
2022-11-19T00:31:38.819Z,12.20
2022-11-19T00:40:01.421Z,12.20
2022-11-19T00:48:22.915Z,15.50
2022-11-19T00:56:44.513Z,13.60
2022-11-19T01:05:06.351Z,11.60
2022-11-19T01:13:34.112Z,12.40
2022-11-19T01:21:55.614Z,12.30
2022-11-19T01:30:17.276Z,14.40
2022-11-19T01:38:39.734Z,15.60
2022-11-19T01:47:02.165Z,11.10
2022-11-19T01:55:25.137Z,15.70
2022-11-19T02:03:48.752Z,17.40
2022-11-19T02:12:34.204Z,11.30
2022-11-19T02:21:02.600Z,14.20
2022-11-19T02:30:03.206Z,13.70
2022-11-19T02:38:42.304Z,14.40
2022-11-19T02:47:08.744Z,16.40
2022-11-19T02:55:31.373Z,14.60
2022-11-19T03:04:12.098Z,9.90
2022-11-19T03:12:45.556Z,15.20
2022-11-19T03:21:44.260Z,16.30
2022-11-19T03:30:08.132Z,15.20
2022-11-19T03:38:41.619Z,17.10
2022-11-19T03:47:15.712Z,17.00
2022-11-19T03:55:56.783Z,15.90
2022-11-19T04:04:38.768Z,12.40
2022-11-19T04:21:22.842Z,12.50
2022-11-19T04:29:44.460Z,12.00
2022-11-19T04:38:06.635Z,9.50
2022-11-19T04:46:28.313Z,10.30
2022-11-19T04:54:49.980Z,14.70
2022-11-19T05:03:11.432Z,17.00
2022-11-19T05:11:32.959Z,11.60
2022-11-19T05:19:54.468Z,16.80
2022-11-19T05:28:15.979Z,7.30
2022-11-19T05:36:37.540Z,13.20
2022-11-19T05:44:59.120Z,15.90
2022-11-19T05:53:20.561Z,14.70
2022-11-19T06:01:42.198Z,16.50
2022-11-19T06:10:05.103Z,19.30
2022-11-19T06:18:26.659Z,17.10
2022-11-19T06:26:48.190Z,14.90
2022-11-19T06:35:10.156Z,11.90
2022-11-19T06:43:31.620Z,16.40
2022-11-19T06:51:53.171Z,14.00
2022-11-19T07:00:15.360Z,14.00
2022-11-19T07:08:37.222Z,13.10
2022-11-19T07:16:58.671Z,12.90
2022-11-19T07:25:20.272Z,14.70
2022-11-19T07:33:41.918Z,19.80
2022-11-19T07:42:22.283Z,15.10
2022-11-19T07:50:56.272Z,15.10
2022-11-19T07:59:18.687Z,13.10
2022-11-19T08:07:41.707Z,15.00
2022-11-19T08:16:06.500Z,14.90
2022-11-19T08:24:28.752Z,13.90
2022-11-19T08:32:50.196Z,12.40
2022-11-19T08:41:30.420Z,12.30
2022-11-19T08:49:52.186Z,16.30
2022-11-19T08:58:13.912Z,14.20
2022-11-19T09:06:35.489Z,16.90
2022-11-19T09:14:56.956Z,15.90
2022-11-19T09:23:18.558Z,12.70
2022-11-19T09:31:40.015Z,13.50
2022-11-19T09:40:02.150Z,12.30
2022-11-19T09:48:32.497Z,24.10
2022-11-19T09:56:58.073Z,10.10
2022-11-19T10:05:42.305Z,33.00
2022-11-19T10:14:13.109Z,15.10
2022-11-19T10:22:39.012Z,10.50
2022-11-19T10:31:18.061Z,18.00
2022-11-19T10:39:52.220Z,13.20
2022-11-19T10:48:27.014Z,14.60
2022-11-19T10:56:50.811Z,21.20
2022-11-19T11:05:17.849Z,19.00
2022-11-19T11:13:59.020Z,13.50
2022-11-19T11:22:21.440Z,22.00
2022-11-19T11:30:53.962Z,18.20
2022-11-19T11:39:35.887Z,16.40
2022-11-19T11:48:03.334Z,15.70
2022-11-19T11:56:25.010Z,13.70
2022-11-19T12:04:48.925Z,14.70
2022-11-19T12:13:26.495Z,16.90
2022-11-19T12:21:54.614Z,12.20
2022-11-19T12:30:20.434Z,14.10
2022-11-19T12:39:03.049Z,13.00
2022-11-19T12:47:45.338Z,16.70
2022-11-19T12:56:09.759Z,31.50
2022-11-19T13:04:48.614Z,21.30
2022-11-19T13:13:15.591Z,14.70
2022-11-19T13:21:45.873Z,21.40
2022-11-19T13:30:20.768Z,29.60
2022-11-19T13:38:51.486Z,25.80
2022-11-19T13:47:22.028Z,16.90
2022-11-19T13:55:44.770Z,25.50
2022-11-19T14:04:25.319Z,26.60
2022-11-19T14:13:11.960Z,21.90
2022-11-19T14:21:52.638Z,12.40
2022-11-19T14:30:16.832Z,13.10
2022-11-19T14:38:43.691Z,23.60
2022-11-19T14:47:26.315Z,17.70
2022-11-19T14:55:53.297Z,21.40
2022-11-19T15:04:16.304Z,33.10
2022-11-19T15:12:44.625Z,30.30
2022-11-19T15:21:32.130Z,46.20
2022-11-19T15:29:59.482Z,92.70
2022-11-19T15:38:20.949Z,82.50
2022-11-19T15:46:48.074Z,68.50
2022-11-19T15:55:21.614Z,119.20
2022-11-19T16:03:44.315Z,328.90
2022-11-19T16:12:37.962Z,373.40
2022-11-19T16:20:59.747Z,321.90
2022-11-19T16:29:23.800Z,404.80
2022-11-19T16:37:47.678Z,23.00
2022-11-19T16:46:15.091Z,29.80
2022-11-19T16:54:50.328Z,103.50
2022-11-19T17:03:17.732Z,74.60
2022-11-19T17:12:04.518Z,45.20
2022-11-19T17:20:29.830Z,51.00
2022-11-19T17:28:59.948Z,48.40
2022-11-19T17:37:21.433Z,38.60
2022-11-19T17:45:43.339Z,31.90
2022-11-19T17:54:09.333Z,33.40
2022-11-19T18:02:31.090Z,45.20
2022-11-19T18:10:52.678Z,47.40
2022-11-19T18:19:25.311Z,46.50
2022-11-19T18:27:47.594Z,58.90
2022-11-19T18:36:10.606Z,48.00
2022-11-19T18:44:34.825Z,47.60
2022-11-19T18:53:00.330Z,31.60
2022-11-19T19:01:23.727Z,32.40
2022-11-19T19:09:47.608Z,48.60
2022-11-19T19:18:10.214Z,74.60
2022-11-19T19:26:32.747Z,69.10
2022-11-19T19:34:54.604Z,46.60
2022-11-19T19:43:16.110Z,56.70
2022-11-19T19:51:37.797Z,42.50
2022-11-19T19:59:59.362Z,48.30
2022-11-19T20:08:21.476Z,38.00
2022-11-19T20:16:43.343Z,42.70
2022-11-19T20:25:05.485Z,45.80
2022-11-19T20:33:27.033Z,47.10
2022-11-19T20:42:07.155Z,40.20
2022-11-19T20:50:28.789Z,39.90
2022-11-19T20:58:50.335Z,86.30
2022-11-19T21:07:12.720Z,54.40
2022-11-19T21:15:37.650Z,45.90
2022-11-19T21:23:59.267Z,40.30
2022-11-19T21:32:20.779Z,41.80
2022-11-19T21:40:42.527Z,36.00
2022-11-19T21:49:04.411Z,61.50
2022-11-19T21:57:27.913Z,53.50
2022-11-19T22:06:01.825Z,43.60
2022-11-19T22:14:23.386Z,47.50
2022-11-19T22:22:45.865Z,44.80
2022-11-19T22:31:07.511Z,51.00
2022-11-19T22:39:32.335Z,41.50
2022-11-19T22:47:56.653Z,33.70
2022-11-19T22:56:29.797Z,42.40
2022-11-19T23:04:51.456Z,54.50
2022-11-19T23:13:31.261Z,42.90
2022-11-19T23:21:53.012Z,27.80
2022-11-19T23:30:15.324Z,30.30
2022-11-19T23:38:39.227Z,33.80
2022-11-19T23:47:00.736Z,28.30
2022-11-19T23:55:22.499Z,29.30
